Time;durP1;ratioP1;P1;durP2;ratioP2;P2;SDS_P1;SDS_P2;PMS_P1;PMS_P2;Temp;Humidity;BMP_temperature;BMP_pressure;BME280_temperature;BME280_humidity;BME280_pressure;Samples;Min_cycle;Max_cycle;Signal;HPM_P1;HPM_P2
2021/05/15 00:01:03;;;;;;;14.80;10.60;;;;;;;13.22;69.94;99533.08;104616;1098;81365;-67
2021/05/15 00:03:12;;;;;;;12.20;10.50;;;;;;;13.23;69.85;99528.48;104639;1097;80908;-67
2021/05/15 00:05:18;;;;;;;11.20;9.90;;;;;;;13.21;70.05;99528.70;104639;1096;80493;-73
2021/05/15 00:07:23;;;;;;;12.20;10.50;;;;;;;13.21;70.13;99527.89;104642;1097;79675;-72
2021/05/15 00:09:32;;;;;;;11.70;10.40;;;;;;;13.25;70.04;99532.63;104633;1097;80187;-69
2021/05/15 00:11:41;;;;;;;12.60;10.20;;;;;;;13.26;70.07;99530.75;104619;1098;79023;-69
2021/05/15 00:13:47;;;;;;;11.90;10.60;;;;;;;13.26;70.27;99536.17;104627;1098;80148;-73
2021/05/15 00:15:56;;;;;;;11.40;10.20;;;;;;;13.26;70.21;99537.01;104652;1097;80544;-74
2021/05/15 00:18:02;;;;;;;11.80;10.60;;;;;;;13.26;70.28;99544.31;104603;1098;80159;-75
2021/05/15 00:20:13;;;;;;;12.00;10.80;;;;;;;13.32;70.28;99541.50;104619;1098;80864;-68
2021/05/15 00:22:19;;;;;;;11.10;10.00;;;;;;;13.30;70.25;99540.07;104638;1098;80085;-69
2021/05/15 00:24:27;;;;;;;11.00;10.00;;;;;;;13.36;70.49;99545.42;104634;1098;80391;-76
2021/05/15 00:26:34;;;;;;;11.20;10.00;;;;;;;13.33;70.37;99535.03;104581;1098;80160;-75
2021/05/15 00:28:40;;;;;;;11.60;10.50;;;;;;;13.34;70.29;99549.42;104582;1098;80731;-76
2021/05/15 00:30:48;;;;;;;12.30;10.40;;;;;;;13.31;70.34;99548.00;104608;1097;80500;-75
2021/05/15 00:32:54;;;;;;;11.80;10.60;;;;;;;13.24;70.21;99541.01;104610;1098;80534;-74
2021/05/15 00:35:00;;;;;;;11.10;10.00;;;;;;;13.23;70.32;99544.76;104637;1097;78809;-67
2021/05/15 00:37:05;;;;;;;11.70;10.50;;;;;;;13.13;70.26;99547.19;104634;1097;80905;-67
2021/05/15 00:39:11;;;;;;;12.10;10.90;;;;;;;13.10;70.21;99551.19;104626;1097;81168;-76
2021/05/15 00:41:18;;;;;;;13.10;11.80;;;;;;;13.01;70.17;99557.92;104623;1098;80721;-75
2021/05/15 00:43:26;;;;;;;11.90;10.50;;;;;;;12.93;70.35;99555.51;104638;1097;80369;-75
2021/05/15 00:45:32;;;;;;;11.30;10.20;;;;;;;12.85;70.41;99558.52;104621;1098;78857;-75
2021/05/15 00:47:38;;;;;;;11.80;10.60;;;;;;;12.73;70.54;99552.16;104621;1097;79058;-75
2021/05/15 00:49:44;;;;;;;12.50;10.30;;;;;;;12.69;70.62;99554.48;104600;1097;79587;-68
2021/05/15 00:51:52;;;;;;;11.10;10.00;;;;;;;12.61;70.58;99556.67;104657;1097;80783;-67
2021/05/15 00:53:58;;;;;;;12.60;11.10;;;;;;;12.52;70.80;99558.84;104597;1097;80057;-68
2021/05/15 00:56:05;;;;;;;12.60;11.40;;;;;;;12.46;70.88;99561.59;104626;1098;80149;-69
2021/05/15 00:58:14;;;;;;;12.70;10.50;;;;;;;12.37;70.89;99555.63;104681;1098;78748;-71
2021/05/15 01:00:23;;;;;;;12.20;11.00;;;;;;;12.30;71.04;99565.69;104660;1097;79804;-69
2021/05/15 01:02:28;;;;;;;12.20;11.10;;;;;;;12.23;71.30;99560.31;104647;1098;79454;-69
2021/05/15 01:04:34;;;;;;;13.40;12.00;;;;;;;12.16;71.42;99556.84;104627;1098;80401;-75
2021/05/15 01:06:40;;;;;;;12.90;11.60;;;;;;;12.08;71.59;99559.82;104630;1098;79274;-75
2021/05/15 01:08:46;;;;;;;13.10;11.60;;;;;;;12.06;71.56;99559.19;104653;1098;80107;-74
2021/05/15 01:10:52;;;;;;;12.00;10.80;;;;;;;12.09;72.01;99558.75;104615;1097;81399;-75
2021/05/15 01:12:58;;;;;;;12.80;11.40;;;;;;;12.14;72.27;99560.83;104629;1097;79927;-74
2021/05/15 01:15:06;;;;;;;13.50;11.90;;;;;;;12.20;72.27;99558.05;104667;1097;80126;-69
2021/05/15 01:17:13;;;;;;;13.00;11.60;;;;;;;12.29;72.38;99558.61;104649;1097;80777;-68
2021/05/15 01:19:22;;;;;;;13.20;11.90;;;;;;;12.35;72.50;99553.14;104649;1096;80762;-68
2021/05/15 01:21:28;;;;;;;13.40;12.10;;;;;;;12.45;72.42;99563.47;104648;1097;80574;-67
2021/05/15 01:23:33;;;;;;;13.60;11.90;;;;;;;12.49;72.46;99558.44;104645;1098;80285;-75
2021/05/15 01:25:42;;;;;;;12.80;11.60;;;;;;;12.49;72.40;99555.73;104613;1098;80315;-75
2021/05/15 01:27:48;;;;;;;12.80;11.50;;;;;;;12.45;72.18;99558.05;104647;1098;80515;-76
2021/05/15 01:29:53;;;;;;;12.60;11.40;;;;;;;12.40;72.38;99563.30;104618;1098;79700;-77
2021/05/15 01:31:59;;;;;;;12.70;11.40;;;;;;;12.42;72.33;99553.91;104655;1098;80160;-77
2021/05/15 01:34:06;;;;;;;13.50;11.50;;;;;;;12.34;72.40;99556.89;104648;1098;78871;-77
2021/05/15 01:36:12;;;;;;;12.20;11.00;;;;;;;12.32;72.42;99558.17;104626;1098;80647;-77
2021/05/15 01:38:17;;;;;;;13.90;11.40;;;;;;;12.30;72.29;99563.82;104642;1097;81526;-70
2021/05/15 01:40:23;;;;;;;12.60;11.40;;;;;;;12.25;72.43;99565.53;104642;1098;80330;-70
2021/05/15 01:42:29;;;;;;;13.20;11.90;;;;;;;12.18;72.30;99556.61;104614;1098;79648;-69
2021/05/15 01:44:34;;;;;;;12.40;11.20;;;;;;;12.14;72.42;99563.53;104624;1098;80922;-70
2021/05/15 01:46:43;;;;;;;12.60;11.40;;;;;;;12.13;72.48;99564.56;104603;1097;80751;-70
2021/05/15 01:48:49;;;;;;;12.50;11.30;;;;;;;12.11;72.50;99561.27;104606;1096;80566;-73
2021/05/15 01:51:00;;;;;;;11.80;10.60;;;;;;;12.15;72.63;99562.46;104599;1098;79511;-75
2021/05/15 01:53:06;;;;;;;11.70;10.50;;;;;;;12.17;72.82;99554.94;104640;1098;80240;-74
2021/05/15 01:55:21;;;;;;;11.90;10.50;;;;;;;12.23;72.85;99562.19;104630;1097;79963;-74
2021/05/15 01:57:27;;;;;;;11.70;10.40;;;;;;;12.30;72.81;99558.41;104635;1097;81412;-75
2021/05/15 01:59:33;;;;;;;11.00;10.00;;;;;;;12.38;72.96;99560.00;104615;1097;80226;-70
2021/05/15 02:01:39;;;;;;;11.00;9.60;;;;;;;12.45;72.80;99560.76;104633;1098;81352;-70
2021/05/15 02:03:46;;;;;;;10.40;9.00;;;;;;;12.51;72.83;99559.04;104601;1098;79011;-74
2021/05/15 02:05:53;;;;;;;10.50;9.00;;;;;;;12.52;72.73;99560.71;104633;1096;80401;-74
2021/05/15 02:07:59;;;;;;;9.90;8.40;;;;;;;12.60;72.79;99563.97;104592;1097;80037;-74
2021/05/15 02:10:08;;;;;;;10.60;8.70;;;;;;;12.65;72.67;99564.13;104629;1098;81212;-75
2021/05/15 02:12:16;;;;;;;9.40;7.70;;;;;;;12.69;72.57;99559.09;104647;1097;81890;-74
2021/05/15 02:14:22;;;;;;;9.00;7.80;;;;;;;12.72;72.41;99562.17;104621;1098;79179;-70
2021/05/15 02:16:27;;;;;;;8.30;7.50;;;;;;;12.76;72.29;99562.56;104640;1097;81135;-70
2021/05/15 02:18:33;;;;;;;9.10;8.00;;;;;;;12.77;72.21;99566.94;104631;1098;80987;-73
2021/05/15 02:20:40;;;;;;;8.80;7.30;;;;;;;12.77;72.29;99561.52;104593;1098;79360;-74
2021/05/15 02:22:46;;;;;;;8.30;7.40;;;;;;;12.77;72.11;99566.94;104614;1098;80977;-74
2021/05/15 02:24:52;;;;;;;8.10;7.20;;;;;;;12.79;72.13;99562.95;104601;1097;80100;-73
2021/05/15 02:27:00;;;;;;;9.10;8.20;;;;;;;12.82;72.10;99564.38;104634;1097;80584;-74
2021/05/15 02:29:09;;;;;;;8.00;7.20;;;;;;;12.80;72.15;99561.07;104616;1097;80341;-74
2021/05/15 02:31:14;;;;;;;8.30;7.50;;;;;;;12.79;72.09;99560.23;104621;1097;80418;-74
2021/05/15 02:33:23;;;;;;;8.10;7.30;;;;;;;12.79;72.02;99564.83;104605;1097;79435;-74
2021/05/15 02:35:29;;;;;;;7.90;7.00;;;;;;;12.74;71.97;99557.38;104611;1098;80454;-74
2021/05/15 02:37:35;;;;;;;8.20;7.40;;;;;;;12.61;71.98;99567.52;104654;1097;79512;-75
2021/05/15 02:39:41;;;;;;;7.90;7.10;;;;;;;12.50;71.93;99566.33;104544;1098;81077;-70
2021/05/15 02:41:49;;;;;;;7.80;7.10;;;;;;;12.45;71.99;99574.30;104611;1098;80280;-70
2021/05/15 02:43:55;;;;;;;8.80;7.90;;;;;;;12.43;72.02;99565.58;104565;1097;80235;-69
2021/05/15 02:46:00;;;;;;;7.90;7.10;;;;;;;12.40;71.94;99574.14;104567;1097;79342;-69
2021/05/15 02:48:09;;;;;;;8.80;7.70;;;;;;;12.36;72.11;99576.45;104644;1097;81167;-70
2021/05/15 02:50:17;;;;;;;8.10;7.30;;;;;;;12.37;72.20;99575.41;104615;1097;80699;-70
2021/05/15 02:52:22;;;;;;;9.20;7.70;;;;;;;12.38;72.17;99573.54;104642;1097;80869;-70
2021/05/15 02:54:28;;;;;;;8.10;6.70;;;;;;;12.40;72.41;99574.98;104606;1098;78983;-74
2021/05/15 02:56:34;;;;;;;7.90;7.10;;;;;;;12.43;72.42;99581.83;104638;1098;79386;-73
2021/05/15 02:58:43;;;;;;;7.70;7.00;;;;;;;12.43;72.42;99579.95;104649;1098;80696;-73
2021/05/15 03:00:48;;;;;;;9.20;8.10;;;;;;;12.47;72.46;99582.23;104587;1097;81180;-74
2021/05/15 03:02:56;;;;;;;7.80;7.00;;;;;;;12.52;72.66;99585.92;104584;1098;79105;-74
2021/05/15 03:05:01;;;;;;;8.50;6.80;;;;;;;12.58;72.42;99590.44;104544;1098;79205;-70
2021/05/15 03:07:07;;;;;;;7.70;6.90;;;;;;;12.61;72.45;99584.58;104593;1096;79239;-69
2021/05/15 03:09:16;;;;;;;7.20;6.40;;;;;;;12.63;72.61;99587.08;104569;1098;80695;-70
2021/05/15 03:11:22;;;;;;;8.10;6.60;;;;;;;12.68;72.42;99592.66;104569;1098;81179;-70
2021/05/15 03:13:28;;;;;;;7.60;6.20;;;;;;;12.74;72.56;99589.06;104617;1098;79400;-70
2021/05/15 03:15:34;;;;;;;7.50;6.80;;;;;;;12.79;72.44;99586.51;104566;1098;79458;-70
2021/05/15 03:17:41;;;;;;;7.80;6.90;;;;;;;12.81;72.51;99595.23;104615;1098;81455;-69
2021/05/15 03:19:47;;;;;;;7.50;6.60;;;;;;;12.83;72.48;99593.95;104607;1097;80202;-74
2021/05/15 03:21:53;;;;;;;7.00;6.30;;;;;;;12.92;72.43;99594.50;104638;1096;80601;-73
2021/05/15 03:24:02;;;;;;;8.00;6.40;;;;;;;12.96;72.40;99598.44;104600;1098;81382;-70
2021/05/15 03:26:08;;;;;;;8.00;6.60;;;;;;;13.01;72.28;99590.45;104638;1098;79666;-69
2021/05/15 03:28:13;;;;;;;7.50;6.70;;;;;;;13.03;72.32;99589.17;104577;1097;80220;-71
2021/05/15 03:30:22;;;;;;;7.80;6.60;;;;;;;13.08;72.08;99588.52;104624;1097;80230;-69
2021/05/15 03:32:27;;;;;;;6.90;6.20;;;;;;;13.13;72.14;99596.00;104589;1098;80192;-69
2021/05/15 03:34:33;;;;;;;9.20;6.20;;;;;;;13.20;71.96;99594.03;104568;1097;80782;-70
2021/05/15 03:36:39;;;;;;;6.80;5.70;;;;;;;13.19;71.88;99595.91;104576;1098;79582;-70
2021/05/15 03:38:44;;;;;;;6.70;6.10;;;;;;;13.24;71.83;99593.34;104602;1098;81339;-70
2021/05/15 03:40:50;;;;;;;5.80;5.20;;;;;;;13.26;71.79;99596.68;104534;1098;79878;-69
2021/05/15 03:42:56;;;;;;;6.80;6.00;;;;;;;13.28;71.70;99593.73;104597;1096;80318;-69
2021/05/15 03:45:03;;;;;;;7.30;5.60;;;;;;;13.27;71.54;99598.31;104599;1097;80588;-74
2021/05/15 03:47:08;;;;;;;7.70;5.80;;;;;;;13.25;71.54;99603.15;104563;1097;80833;-75
2021/05/15 03:49:14;;;;;;;6.80;6.00;;;;;;;13.23;71.43;99601.72;104609;1098;81879;-74
2021/05/15 03:51:20;;;;;;;6.90;6.20;;;;;;;13.19;71.48;99606.76;104524;1098;80016;-74
2021/05/15 03:53:26;;;;;;;6.90;5.80;;;;;;;13.21;71.60;99601.13;104566;1098;78930;-71
2021/05/15 03:55:34;;;;;;;6.30;5.40;;;;;;;13.20;71.36;99600.29;104578;1097;80823;-70
2021/05/15 03:57:40;;;;;;;6.90;5.80;;;;;;;13.18;71.44;99605.12;104578;1098;79924;-70
2021/05/15 03:59:49;;;;;;;7.00;5.30;;;;;;;13.22;71.27;99614.45;104594;1098;80296;-75
2021/05/15 04:01:54;;;;;;;5.90;5.10;;;;;;;13.24;71.36;99606.91;104558;1099;81421;-74
2021/05/15 04:04:00;;;;;;;6.40;5.30;;;;;;;13.25;71.30;99607.73;104559;1098;80943;-74
2021/05/15 04:06:07;;;;;;;8.20;7.20;;;;;;;13.24;71.24;99612.33;104596;1098;79451;-74
2021/05/15 04:08:13;;;;;;;8.30;5.90;;;;;;;13.25;71.04;99616.71;104656;1098;79770;-73
2021/05/15 04:10:22;;;;;;;8.20;6.10;;;;;;;13.27;71.00;99614.59;104620;1096;79694;-73
2021/05/15 04:12:34;;;;;;;6.40;5.50;;;;;;;13.29;71.15;99617.94;104627;1098;80540;-75
2021/05/15 04:14:43;;;;;;;7.10;5.80;;;;;;;13.33;70.93;99612.86;104587;1098;81103;-74
2021/05/15 04:17:03;;;;;;;7.10;6.30;;;;;;;13.33;70.85;99615.58;104585;1097;80090;-75
2021/05/15 04:19:08;;;;;;;7.70;6.10;;;;;;;13.32;70.86;99606.59;104622;1098;80179;-71
2021/05/15 04:21:17;;;;;;;6.70;5.50;;;;;;;13.33;70.74;99618.28;104625;1098;79397;-70
2021/05/15 04:23:23;;;;;;;6.50;5.70;;;;;;;13.31;70.67;99614.98;104630;1098;79798;-70
2021/05/15 04:25:29;;;;;;;6.60;5.60;;;;;;;13.34;70.57;99611.81;104629;1097;80489;-70
2021/05/15 04:27:35;;;;;;;7.90;6.00;;;;;;;13.33;70.55;99615.58;104641;1098;79195;-69
2021/05/15 04:29:42;;;;;;;8.60;5.70;;;;;;;13.37;70.51;99616.80;104602;1098;80147;-70
2021/05/15 04:31:48;;;;;;;6.70;5.70;;;;;;;13.39;70.52;99615.51;104614;1097;80892;-69
2021/05/15 04:33:53;;;;;;;6.50;5.30;;;;;;;13.43;70.67;99615.89;104634;1098;80109;-74
2021/05/15 04:36:00;;;;;;;6.70;4.90;;;;;;;13.44;70.56;99615.66;104636;1097;78710;-74
2021/05/15 04:38:08;;;;;;;5.90;4.80;;;;;;;13.44;70.53;99623.80;104649;1097;80452;-74
2021/05/15 04:40:18;;;;;;;7.10;5.90;;;;;;;13.45;70.39;99625.46;104650;1098;78862;-75
2021/05/15 04:42:23;;;;;;;7.40;5.60;;;;;;;13.48;70.41;99630.44;104645;1097;78957;-75
2021/05/15 04:44:29;;;;;;;7.20;5.70;;;;;;;13.52;70.41;99622.65;104621;1097;80551;-70
2021/05/15 04:46:38;;;;;;;7.50;5.40;;;;;;;13.58;70.22;99630.72;104596;1096;79327;-69
2021/05/15 04:48:49;;;;;;;6.50;5.60;;;;;;;13.62;70.22;99630.27;104603;1098;79217;-75
2021/05/15 04:50:54;;;;;;;6.90;5.90;;;;;;;13.67;70.06;99627.70;104617;1097;79580;-74
2021/05/15 04:53:00;;;;;;;6.80;5.70;;;;;;;13.73;69.99;99630.34;104608;1098;81380;-75
2021/05/15 04:55:08;;;;;;;6.60;5.70;;;;;;;13.74;69.84;99636.58;104602;1097;81138;-75
2021/05/15 04:57:16;;;;;;;6.70;5.80;;;;;;;13.76;69.58;99626.34;104611;1096;80228;-75
2021/05/15 04:59:24;;;;;;;6.10;5.00;;;;;;;13.79;69.63;99636.74;104642;1098;80463;-75
2021/05/15 05:01:30;;;;;;;5.90;5.10;;;;;;;13.86;69.38;99630.16;104611;1098;81781;-75
2021/05/15 05:03:36;;;;;;;6.80;4.70;;;;;;;13.89;69.41;99637.85;104661;1098;80048;-72
2021/05/15 05:05:42;;;;;;;5.60;5.00;;;;;;;13.91;69.16;99638.44;104607;1097;79422;-73
2021/05/15 05:07:48;;;;;;;6.50;4.70;;;;;;;13.93;68.98;99643.63;104654;1098;79452;-75
2021/05/15 05:09:53;;;;;;;5.50;4.30;;;;;;;13.88;69.00;99640.78;104618;1098;80818;-74
2021/05/15 05:12:03;;;;;;;5.40;3.90;;;;;;;13.81;68.75;99645.48;104640;1098;81573;-74
2021/05/15 05:14:09;;;;;;;4.20;3.00;;;;;;;13.71;68.38;99656.03;104603;1097;79339;-73
2021/05/15 05:16:15;;;;;;;4.20;2.90;;;;;;;13.64;68.28;99655.30;104637;1098;80248;-75
2021/05/15 05:18:24;;;;;;;3.50;2.70;;;;;;;13.61;68.06;99659.30;104621;1096;81253;-73
2021/05/15 05:20:30;;;;;;;3.80;2.70;;;;;;;13.54;67.68;99667.50;104652;1098;78716;-74
2021/05/15 05:22:36;;;;;;;3.60;2.20;;;;;;;13.51;67.71;99665.23;104606;1098;80814;-75
2021/05/15 05:24:44;;;;;;;4.10;2.80;;;;;;;13.44;67.57;99669.92;104607;1098;79336;-69
2021/05/15 05:26:54;;;;;;;3.20;2.40;;;;;;;13.38;67.37;99667.27;104639;1098;81205;-69
2021/05/15 05:29:04;;;;;;;2.80;2.30;;;;;;;13.34;67.36;99676.92;104603;1098;79635;-69
2021/05/15 05:31:10;;;;;;;3.80;2.30;;;;;;;13.29;67.39;99677.61;104629;1098;81545;-69
2021/05/15 05:33:19;;;;;;;3.20;2.20;;;;;;;13.28;67.19;99666.97;104534;1098;80539;-72
2021/05/15 05:35:24;;;;;;;3.50;2.90;;;;;;;13.23;67.42;99673.07;104572;1098;80342;-75
2021/05/15 05:37:30;;;;;;;2.70;2.20;;;;;;;13.25;67.44;99676.38;104602;1097;80181;-74
2021/05/15 05:39:37;;;;;;;4.60;2.20;;;;;;;13.24;67.37;99685.56;104607;1097;80338;-74
2021/05/15 05:41:43;;;;;;;3.70;2.50;;;;;;;13.25;67.42;99689.11;104657;1098;80041;-75
2021/05/15 05:43:48;;;;;;;3.10;2.10;;;;;;;13.25;67.30;99679.09;104611;1098;80867;-70
2021/05/15 05:45:54;;;;;;;2.50;1.80;;;;;;;13.29;67.39;99684.91;104623;1098;79396;-69
2021/05/15 05:48:00;;;;;;;4.20;1.90;;;;;;;13.27;67.28;99687.83;104641;1098;80989;-70
2021/05/15 05:50:09;;;;;;;3.30;2.10;;;;;;;13.33;67.42;99686.94;104649;1098;79664;-70
2021/05/15 05:52:14;;;;;;;2.90;2.50;;;;;;;13.40;67.20;99685.00;104644;1097;80071;-69
2021/05/15 05:54:20;;;;;;;2.90;2.10;;;;;;;13.46;67.25;99681.36;104632;1097;81074;-69
2021/05/15 05:56:26;;;;;;;4.10;2.10;;;;;;;13.55;67.11;99685.45;104638;1098;80140;-70
2021/05/15 05:58:31;;;;;;;3.00;2.40;;;;;;;13.70;67.19;99692.39;104606;1098;80046;-70
2021/05/15 06:00:37;;;;;;;2.10;1.90;;;;;;;13.82;66.93;99690.55;104630;1098;79348;-69
2021/05/15 06:02:43;;;;;;;4.10;2.20;;;;;;;13.96;66.92;99697.48;104626;1098;79479;-70
2021/05/15 06:04:48;;;;;;;3.20;2.40;;;;;;;14.07;66.80;99685.85;104627;1098;80424;-69
2021/05/15 06:06:54;;;;;;;3.90;2.60;;;;;;;14.23;66.54;99693.36;104630;1098;79631;-69
2021/05/15 06:08:59;;;;;;;4.20;3.20;;;;;;;14.36;66.46;99687.80;104648;1097;79853;-70
2021/05/15 06:11:06;;;;;;;3.40;2.30;;;;;;;14.52;66.14;99684.42;104610;1098;81531;-69
2021/05/15 06:13:15;;;;;;;3.40;2.60;;;;;;;14.71;66.01;99685.16;104635;1098;79774;-74
2021/05/15 06:15:21;;;;;;;4.70;2.50;;;;;;;14.86;65.90;99693.69;104649;1098;80771;-69
2021/05/15 06:17:27;;;;;;;2.70;2.10;;;;;;;14.98;65.55;99691.83;104643;1098;79800;-70
2021/05/15 06:19:36;;;;;;;3.30;2.70;;;;;;;15.03;65.29;99691.11;104658;1097;81394;-70
2021/05/15 06:21:41;;;;;;;2.90;2.20;;;;;;;15.03;65.25;99697.38;104605;1097;80127;-69
2021/05/15 06:23:47;;;;;;;3.60;2.60;;;;;;;15.07;64.57;99705.91;104598;1098;80832;-69
2021/05/15 06:25:52;;;;;;;4.90;2.90;;;;;;;15.05;64.72;99700.69;104605;1097;81552;-69
2021/05/15 06:28:01;;;;;;;4.00;2.90;;;;;;;15.06;64.60;99706.96;104597;1097;81645;-69
2021/05/15 06:30:10;;;;;;;4.00;3.20;;;;;;;15.07;64.79;99705.91;104585;1097;83067;-69
2021/05/15 06:32:19;;;;;;;3.90;3.50;;;;;;;15.19;64.58;99709.48;104641;1098;80186;-69
2021/05/15 06:34:25;;;;;;;4.70;4.20;;;;;;;15.30;64.34;99714.07;104584;1099;78949;-73
2021/05/15 06:36:30;;;;;;;4.60;3.50;;;;;;;15.34;63.96;99713.38;104602;1096;81341;-73
2021/05/15 06:38:41;;;;;;;4.30;3.90;;;;;;;15.28;64.03;99716.20;104629;1097;79806;-69
2021/05/15 06:40:50;;;;;;;4.70;3.60;;;;;;;15.29;63.61;99715.98;104629;1098;80406;-68
2021/05/15 06:42:56;;;;;;;4.80;3.60;;;;;;;15.40;63.67;99718.94;104624;1098;80564;-69
2021/05/15 06:45:09;;;;;;;4.80;3.90;;;;;;;15.49;63.67;99712.11;104614;1097;82609;-69
2021/05/15 06:47:18;;;;;;;;;;;;;;;15.62;63.17;99715.41;104677;1097;81442;-69
2021/05/15 06:49:27;;;;;;;3.70;3.30;;;;;;;15.65;63.15;99720.38;104542;1098;81165;-70
2021/05/15 06:51:33;;;;;;;4.40;3.60;;;;;;;15.68;62.87;99725.35;104660;1097;80112;-70
2021/05/15 06:53:39;;;;;;;6.10;3.70;;;;;;;15.69;62.58;99729.71;104636;1097;78870;-68
2021/05/15 06:55:47;;;;;;;5.30;3.70;;;;;;;15.71;62.94;99726.77;104628;1097;79870;-68
2021/05/15 06:57:53;;;;;;;5.70;4.00;;;;;;;15.82;62.62;99718.55;104666;1098;80210;-70
2021/05/15 06:59:59;;;;;;;5.20;4.10;;;;;;;15.94;62.33;99729.44;104575;1098;80135;-68
2021/05/15 07:02:05;;;;;;;5.50;4.20;;;;;;;16.05;62.11;99730.47;104635;1098;79623;-68
2021/05/15 07:04:11;;;;;;;4.20;3.70;;;;;;;16.11;61.86;99732.23;104645;1097;81259;-75
2021/05/15 07:06:25;;;;;;;4.30;3.90;;;;;;;16.17;61.72;99731.28;104611;1097;80605;-77
2021/05/15 07:08:31;;;;;;;4.20;3.40;;;;;;;16.11;61.53;99734.96;104624;1097;79551;-77
2021/05/15 07:10:37;;;;;;;4.70;4.20;;;;;;;16.03;61.16;99738.06;104619;1097;80112;-77
2021/05/15 07:12:43;;;;;;;5.50;3.80;;;;;;;15.97;61.03;99739.02;104650;1098;79286;-77
2021/05/15 07:14:49;;;;;;;4.20;3.40;;;;;;;15.90;61.03;99734.52;104634;1097;79944;-68
2021/05/15 07:16:55;;;;;;;4.90;3.90;;;;;;;15.92;61.25;99732.41;104642;1098;80682;-68
2021/05/15 07:19:01;;;;;;;4.60;3.50;;;;;;;16.02;61.27;99733.67;104634;1098;80665;-68
2021/05/15 07:21:07;;;;;;;4.10;3.40;;;;;;;16.11;61.20;99738.52;104577;1098;81095;-67
2021/05/15 07:23:13;;;;;;;4.30;3.90;;;;;;;16.17;61.07;99744.91;104652;1098;79250;-73
2021/05/15 07:25:19;;;;;;;3.60;3.30;;;;;;;16.20;60.65;99742.53;104612;1097;80153;-77
2021/05/15 07:27:29;;;;;;;3.40;3.10;;;;;;;16.27;60.81;99743.20;104608;1097;80408;-76
2021/05/15 07:29:35;;;;;;;4.00;3.60;;;;;;;16.29;60.27;99751.13;104643;1097;80668;-69
2021/05/15 07:31:41;;;;;;;3.60;3.30;;;;;;;16.25;60.23;99752.70;104615;1098;80605;-69
2021/05/15 07:33:49;;;;;;;4.40;3.30;;;;;;;16.25;60.36;99753.53;104643;1098;81442;-76
2021/05/15 07:35:58;;;;;;;4.60;3.10;;;;;;;16.37;60.64;99750.77;104626;1098;80100;-77
2021/05/15 07:38:04;;;;;;;6.50;3.40;;;;;;;16.48;60.33;99747.97;104619;1098;79296;-77
2021/05/15 07:40:12;;;;;;;6.80;3.30;;;;;;;16.50;60.20;99751.31;104619;1098;80381;-77
2021/05/15 07:42:20;;;;;;;3.40;3.10;;;;;;;16.65;60.26;99752.67;104666;1098;79897;-76
2021/05/15 07:44:26;;;;;;;4.00;3.60;;;;;;;16.70;59.68;99750.06;104626;1097;79928;-77
2021/05/15 07:46:32;;;;;;;3.30;3.10;;;;;;;16.72;59.82;99754.20;104611;1098;81374;-76
2021/05/15 07:48:42;;;;;;;3.90;3.30;;;;;;;16.75;59.86;99753.72;104617;1097;80142;-68
2021/05/15 07:50:48;;;;;;;3.10;2.80;;;;;;;16.84;59.74;99767.76;104600;1098;79466;-68
2021/05/15 07:52:54;;;;;;;3.90;3.00;;;;;;;17.01;59.70;99764.00;104615;1097;80749;-69
2021/05/15 07:55:00;;;;;;;5.00;3.10;;;;;;;17.18;59.27;99761.28;104611;1098;78957;-69
2021/05/15 07:57:07;;;;;;;3.80;3.30;;;;;;;17.29;59.26;99760.38;104613;1097;81502;-68
2021/05/15 07:59:13;;;;;;;3.90;3.30;;;;;;;17.55;58.71;99759.71;104642;1097;80891;-69
2021/05/15 08:01:18;;;;;;;5.80;3.70;;;;;;;17.67;58.51;99760.45;104647;1098;79252;-69
2021/05/15 08:03:24;;;;;;;3.80;3.00;;;;;;;17.98;58.59;99760.88;104625;1097;81428;-70
2021/05/15 08:05:30;;;;;;;5.40;3.00;;;;;;;19.03;58.96;99753.09;104637;1097;80304;-69
2021/05/15 08:07:36;;;;;;;3.90;3.50;;;;;;;20.46;58.10;99751.82;104666;1097;80917;-69
2021/05/15 08:09:41;;;;;;;4.80;3.10;;;;;;;21.44;56.72;99752.55;104611;1097;81073;-78
2021/05/15 08:11:48;;;;;;;3.70;3.10;;;;;;;22.83;54.65;99757.06;104616;1097;79875;-78
2021/05/15 08:13:54;;;;;;;2.40;2.20;;;;;;;22.45;51.60;99754.21;104617;1097;80335;-78
2021/05/15 08:16:00;;;;;;;2.90;2.10;;;;;;;21.78;51.33;99759.08;104615;1096;80152;-78
2021/05/15 08:18:06;;;;;;;2.90;2.10;;;;;;;21.63;51.78;99761.04;104625;1098;80462;-78
2021/05/15 08:20:15;;;;;;;2.00;1.90;;;;;;;22.17;50.64;99762.03;104603;1097;79845;-77
2021/05/15 08:22:23;;;;;;;2.80;2.00;;;;;;;21.86;50.15;99762.38;104608;1096;79938;-77
2021/05/15 08:24:29;;;;;;;2.30;1.90;;;;;;;22.38;50.68;99768.30;104601;1098;78818;-69
2021/05/15 08:26:39;;;;;;;3.00;1.80;;;;;;;23.32;50.36;99758.93;104640;1098;80343;-69
2021/05/15 08:28:50;;;;;;;2.90;1.60;;;;;;;25.08;46.91;99759.64;104622;1097;79632;-77
2021/05/15 08:30:59;;;;;;;2.70;1.90;;;;;;;25.68;46.46;99755.06;104593;1098;78717;-76
2021/05/15 08:33:05;;;;;;;2.50;1.50;;;;;;;25.67;44.14;99747.08;104618;1098;79875;-78
2021/05/15 08:35:16;;;;;;;2.20;2.00;;;;;;;26.11;42.39;99757.59;104612;1097;79962;-75
2021/05/15 08:37:22;;;;;;;7.00;6.20;;;;;;;25.85;42.31;99754.48;104585;1098;79165;-77
2021/05/15 08:39:31;;;;;;;6.40;5.80;;;;;;;25.58;42.00;99757.20;104609;1098;79431;-77
2021/05/15 08:41:37;;;;;;;2.20;2.00;;;;;;;25.01;42.08;99761.98;104628;1098;81127;-75
2021/05/15 08:43:44;;;;;;;2.10;1.80;;;;;;;25.08;42.57;99753.29;104619;1097;81437;-74
2021/05/15 08:45:54;;;;;;;3.60;1.60;;;;;;;26.33;42.04;99758.55;104643;1097;80789;-66
2021/05/15 08:48:08;;;;;;;1.90;1.50;;;;;;;27.52;41.04;99751.69;104592;1098;80434;-65
2021/05/15 08:50:20;;;;;;;2.60;1.70;;;;;;;28.44;39.20;99745.27;104524;1099;81245;-75
2021/05/15 08:52:27;;;;;;;2.30;1.50;;;;;;;29.08;37.64;99749.97;104627;1097;79054;-73
2021/05/15 08:54:37;;;;;;;1.80;1.20;;;;;;;29.35;37.09;99742.44;104608;1098;80514;-76
2021/05/15 08:56:44;;;;;;;2.70;1.70;;;;;;;29.45;35.69;99747.66;104575;1096;80006;-76
2021/05/15 08:58:53;;;;;;;2.20;1.20;;;;;;;29.72;35.38;99742.52;104640;1097;81374;-68
2021/05/15 09:00:59;;;;;;;1.40;1.10;;;;;;;29.42;34.93;99756.70;104652;1096;79564;-77
2021/05/15 09:03:08;;;;;;;2.50;2.10;;;;;;;28.46;34.47;99751.30;104620;1097;80371;-77
2021/05/15 09:05:18;;;;;;;2.10;1.70;;;;;;;27.44;34.72;99749.69;104624;1097;79518;-69
2021/05/15 09:07:24;;;;;;;2.70;1.50;;;;;;;27.15;35.12;99757.57;104621;1098;80186;-68
2021/05/15 09:09:29;;;;;;;2.00;1.30;;;;;;;27.31;35.23;99762.44;104612;1098;79848;-76
2021/05/15 09:11:36;;;;;;;1.70;1.20;;;;;;;27.48;35.17;99751.50;104630;1098;81453;-76
2021/05/15 09:13:53;;;;;;;2.80;1.10;;;;;;;27.03;34.88;99749.80;104594;1098;79228;-75
2021/05/15 09:16:03;;;;;;;4.30;1.20;;;;;;;26.17;35.36;99746.15;104627;1098;79123;-76
2021/05/15 09:18:09;;;;;;;1.90;1.50;;;;;;;26.28;35.82;99744.81;104605;1097;79207;-76
2021/05/15 09:20:28;;;;;;;1.60;1.20;;;;;;;26.59;35.79;99738.63;104638;1097;79617;-76
2021/05/15 09:22:33;;;;;;;1.30;0.80;;;;;;;26.69;36.10;99735.61;104664;1097;80841;-76
2021/05/15 09:24:44;;;;;;;2.60;0.80;;;;;;;26.84;35.47;99738.06;104597;1098;82478;-77
2021/05/15 09:26:52;;;;;;;2.20;1.20;;;;;;;26.93;35.61;99734.24;104633;1097;79567;-77
2021/05/15 09:29:00;;;;;;;2.00;0.90;;;;;;;26.73;34.53;99728.30;104582;1098;79406;-77
2021/05/15 09:31:19;;;;;;;2.70;1.10;;;;;;;26.18;34.67;99738.64;104596;1098;81135;-77
2021/05/15 09:33:28;;;;;;;2.20;1.00;;;;;;;25.85;35.47;99746.17;104627;1097;81328;-77
2021/05/15 09:35:34;;;;;;;1.60;1.00;;;;;;;25.86;35.73;99745.06;104532;1098;80303;-76
2021/05/15 09:37:43;;;;;;;2.40;1.00;;;;;;;25.75;35.78;99738.90;104530;1097;80051;-76
2021/05/15 09:39:48;;;;;;;1.10;0.70;;;;;;;25.43;36.00;99740.84;104581;1098;79314;-76
2021/05/15 09:41:58;;;;;;;1.90;1.10;;;;;;;25.13;35.70;99736.65;104569;1098;81446;-75
2021/05/15 09:44:05;;;;;;;2.80;0.90;;;;;;;24.61;35.39;99740.45;104626;1097;79326;-68
2021/05/15 09:46:26;;;;;;;1.60;0.80;;;;;;;24.08;36.50;99739.70;104611;1097;80002;-69
2021/05/15 09:48:38;;;;;;;1.90;0.90;;;;;;;23.51;37.15;99743.35;104615;1097;80883;-69